createdAt,value
2018-08-20T00:00:36.577Z,13.10
2018-08-20T00:03:04.773Z,12.93
2018-08-20T00:05:36.326Z,13.32
2018-08-20T00:08:04.813Z,12.60
2018-08-20T00:10:33.017Z,12.40
2018-08-20T00:13:01.837Z,11.43
2018-08-20T00:15:30.313Z,16.23
2018-08-20T00:17:59.114Z,12.45
2018-08-20T00:20:27.585Z,12.60
2018-08-20T00:22:56.717Z,12.47
2018-08-20T00:25:25.214Z,11.65
2018-08-20T00:27:54.021Z,13.13
2018-08-20T00:30:22.502Z,12.82
2018-08-20T00:32:50.982Z,12.88
2018-08-20T00:35:20.246Z,12.80
2018-08-20T00:37:50.079Z,13.05
2018-08-20T00:40:19.666Z,13.22
2018-08-20T00:42:48.612Z,13.53
2018-08-20T00:45:17.070Z,14.18
2018-08-20T00:47:46.747Z,13.27
2018-08-20T00:50:15.524Z,14.07
2018-08-20T00:52:44.646Z,12.47
2018-08-20T00:55:13.117Z,12.50
2018-08-20T00:57:42.013Z,12.63
2018-08-20T01:00:11.222Z,13.63
2018-08-20T01:02:39.682Z,13.50
2018-08-20T01:05:08.333Z,14.13
2018-08-20T01:07:36.867Z,16.25
2018-08-20T01:10:07.033Z,16.30
2018-08-20T01:12:35.998Z,12.58
2018-08-20T01:15:05.189Z,13.22
2018-08-20T01:17:33.978Z,11.48
2018-08-20T01:20:02.514Z,13.87
2018-08-20T01:22:31.673Z,13.00
2018-08-20T01:25:00.155Z,12.15
2018-08-20T01:27:29.949Z,12.63
2018-08-20T01:29:58.813Z,15.28
2018-08-20T01:32:27.634Z,13.30
2018-08-20T01:35:06.258Z,24.40
2018-08-20T01:37:34.722Z,13.08
2018-08-20T01:40:03.194Z,13.10
2018-08-20T01:42:31.707Z,12.75
2018-08-20T01:45:01.206Z,13.20
2018-08-20T01:47:29.705Z,13.13
2018-08-20T01:49:58.202Z,14.58
2018-08-20T01:52:26.672Z,13.13
2018-08-20T01:54:55.510Z,13.78
2018-08-20T01:57:25.585Z,13.78
2018-08-20T01:59:54.726Z,14.78
2018-08-20T02:02:23.181Z,14.25
2018-08-20T02:04:51.985Z,15.32
2018-08-20T02:07:20.461Z,14.95
2018-08-20T02:09:49.634Z,14.83
2018-08-20T02:12:18.456Z,14.33
2018-08-20T02:14:47.723Z,15.08
2018-08-20T02:17:16.198Z,15.35
2018-08-20T02:19:44.692Z,13.85
2018-08-20T02:22:13.148Z,15.18
2018-08-20T02:24:41.957Z,13.88
2018-08-20T02:27:10.777Z,16.12
2018-08-20T02:29:39.563Z,16.15
2018-08-20T02:32:08.763Z,13.78
2018-08-20T02:34:37.241Z,16.70
2018-08-20T02:37:05.977Z,14.35
2018-08-20T02:39:34.425Z,18.62
2018-08-20T02:42:02.897Z,17.67
2018-08-20T02:44:31.402Z,16.80
2018-08-20T02:46:59.866Z,15.78
2018-08-20T02:49:28.681Z,15.30
2018-08-20T02:51:57.146Z,16.48
2018-08-20T02:54:26.330Z,15.20
2018-08-20T02:56:54.827Z,16.57
2018-08-20T02:59:23.281Z,15.43
2018-08-20T03:01:52.645Z,15.93
2018-08-20T03:04:21.499Z,17.17
2018-08-20T03:06:50.462Z,16.50
2018-08-20T03:09:20.991Z,16.75
2018-08-20T03:11:49.506Z,16.67
2018-08-20T03:14:18.301Z,16.87
2018-08-20T03:16:47.085Z,16.57
2018-08-20T03:19:15.962Z,17.25
2018-08-20T03:21:44.454Z,16.80
2018-08-20T03:24:15.165Z,16.80
2018-08-20T03:26:43.892Z,16.87
2018-08-20T03:29:13.058Z,17.23
2018-08-20T03:31:41.859Z,18.98
2018-08-20T03:34:11.057Z,16.95
2018-08-20T03:36:39.541Z,17.48
2018-08-20T03:39:08.505Z,17.35
2018-08-20T03:41:37.017Z,17.15
2018-08-20T03:44:05.505Z,17.98
2018-08-20T03:46:34.669Z,17.10
2018-08-20T03:49:03.178Z,17.00
2018-08-20T03:51:31.661Z,16.45
2018-08-20T03:54:00.129Z,16.60
2018-08-20T03:56:28.935Z,18.32
2018-08-20T03:58:57.402Z,16.25
2018-08-20T04:01:26.590Z,16.45
2018-08-20T04:03:55.397Z,17.98
2018-08-20T04:06:24.106Z,17.05
2018-08-20T04:08:52.590Z,16.90
2018-08-20T04:11:21.385Z,16.12
2018-08-20T04:13:50.226Z,17.65
2018-08-20T04:16:19.003Z,17.50
2018-08-20T04:18:47.503Z,16.73
2018-08-20T04:21:16.811Z,17.85
2018-08-20T04:23:45.302Z,18.32
2018-08-20T04:26:13.807Z,15.68
2018-08-20T04:28:42.279Z,16.70
2018-08-20T04:31:11.063Z,16.20
2018-08-20T04:33:39.546Z,16.90
2018-08-20T04:36:08.688Z,18.00
2018-08-20T04:38:37.169Z,19.07
2018-08-20T04:41:05.973Z,18.67
2018-08-20T04:43:34.405Z,18.52
2018-08-20T04:46:02.894Z,17.90
2018-08-20T04:48:31.455Z,22.35
2018-08-20T04:51:00.070Z,24.55
2018-08-20T04:53:28.577Z,16.65
2018-08-20T04:55:57.373Z,27.62
2018-08-20T04:58:26.201Z,16.77
2018-08-20T05:00:54.889Z,16.25
2018-08-20T05:09:55.505Z,18.42
2018-08-20T05:12:24.147Z,18.25
2018-08-20T05:14:52.662Z,23.07
2018-08-20T05:17:21.149Z,20.32
2018-08-20T05:19:49.611Z,21.05
2018-08-20T05:22:18.120Z,17.10
2018-08-20T05:24:46.958Z,23.70
2018-08-20T05:27:15.813Z,18.48
2018-08-20T05:29:44.334Z,21.70
2018-08-20T05:32:13.461Z,19.15
2018-08-20T05:34:41.950Z,17.85
2018-08-20T05:37:10.479Z,17.92
2018-08-20T05:39:38.959Z,17.15
2018-08-20T05:42:07.768Z,19.23
2018-08-20T05:44:36.264Z,23.98
2018-08-20T05:47:04.745Z,16.95
2018-08-20T05:49:34.879Z,17.07
2018-08-20T05:52:03.497Z,18.45
2018-08-20T05:54:32.278Z,24.70
2018-08-20T05:57:00.730Z,19.05
2018-08-20T05:59:29.554Z,20.05
2018-08-20T06:01:58.053Z,17.67
2018-08-20T06:04:26.865Z,16.73
2018-08-20T06:06:56.261Z,21.35
2018-08-20T06:09:27.677Z,15.53
2018-08-20T06:11:56.526Z,17.48
2018-08-20T06:14:25.359Z,19.40
2018-08-20T06:16:53.942Z,16.12
2018-08-20T06:19:22.528Z,15.72
2018-08-20T06:21:51.694Z,16.37
2018-08-20T06:24:21.154Z,16.95
2018-08-20T06:26:50.267Z,19.60
2018-08-20T06:29:19.101Z,11.95
2018-08-20T06:31:47.893Z,15.38
2018-08-20T06:34:16.699Z,20.05
2018-08-20T06:36:45.841Z,16.17
2018-08-20T06:39:15.454Z,17.57
2018-08-20T06:41:43.920Z,19.85
2018-08-20T06:44:12.385Z,24.80
2018-08-20T06:46:40.837Z,16.12
2018-08-20T06:49:10.278Z,14.20
2018-08-20T06:51:39.296Z,15.43
2018-08-20T06:54:09.344Z,14.38
2018-08-20T06:56:38.125Z,26.52
2018-08-20T06:59:06.905Z,13.85
2018-08-20T07:01:35.970Z,15.58
2018-08-20T07:04:04.434Z,15.68
2018-08-20T07:06:33.665Z,12.07
2018-08-20T07:09:02.562Z,13.58
2018-08-20T07:11:31.040Z,13.03
2018-08-20T07:13:59.821Z,14.68
2018-08-20T07:16:28.310Z,10.70
2018-08-20T07:18:57.154Z,14.03
2018-08-20T07:21:25.948Z,17.00
2018-08-20T07:23:54.499Z,12.53
2018-08-20T07:26:23.938Z,15.63
2018-08-20T07:28:52.457Z,15.57
2018-08-20T07:31:21.274Z,18.23
2018-08-20T07:33:49.453Z,15.87
2018-08-20T07:36:18.297Z,15.23
2018-08-20T07:38:46.774Z,13.38
2018-08-20T07:41:15.325Z,15.27
2018-08-20T07:43:43.723Z,17.43
2018-08-20T07:46:12.276Z,17.83
2018-08-20T07:48:40.767Z,19.07
2018-08-20T07:51:09.621Z,17.07
2018-08-20T07:53:38.469Z,18.63
2018-08-20T07:56:06.757Z,14.10
2018-08-20T07:58:35.332Z,13.87
2018-08-20T08:01:03.869Z,16.60
2018-08-20T08:03:32.953Z,16.23
2018-08-20T08:06:03.754Z,13.10
2018-08-20T08:08:32.277Z,16.43
2018-08-20T08:11:01.272Z,14.90
2018-08-20T08:13:29.478Z,14.67
2018-08-20T08:15:58.393Z,16.23
2018-08-20T08:18:26.577Z,31.10
2018-08-20T08:20:54.774Z,11.97
2018-08-20T08:23:23.638Z,12.73
2018-08-20T08:25:52.142Z,14.80
2018-08-20T08:28:20.676Z,21.23
2018-08-20T08:30:49.508Z,12.70
2018-08-20T08:33:18.032Z,16.60
2018-08-20T08:35:46.213Z,15.33
2018-08-20T08:38:14.718Z,18.50
2018-08-20T08:40:43.230Z,18.17
2018-08-20T08:43:11.404Z,20.03
2018-08-20T08:45:39.932Z,10.60
2018-08-20T08:48:08.105Z,14.53
2018-08-20T08:50:36.271Z,23.30
2018-08-20T08:53:04.541Z,19.37
2018-08-20T08:55:32.708Z,26.17
2018-08-20T08:58:00.896Z,12.27
2018-08-20T09:00:29.185Z,12.30
2018-08-20T09:02:57.541Z,10.10
2018-08-20T09:05:25.753Z,14.63
2018-08-20T09:07:54.297Z,14.80
2018-08-20T09:10:22.798Z,13.77
2018-08-20T09:12:51.538Z,29.50
2018-08-20T09:15:19.737Z,14.70
2018-08-20T09:17:47.946Z,11.50
2018-08-20T09:20:17.824Z,12.93
2018-08-20T09:22:46.369Z,13.00
2018-08-20T09:25:15.405Z,11.20
2018-08-20T09:27:44.601Z,13.93
2018-08-20T09:30:16.045Z,11.73
2018-08-20T09:32:45.763Z,14.30
2018-08-20T09:35:14.289Z,16.03
2018-08-20T09:37:42.895Z,13.40
2018-08-20T09:40:11.514Z,11.53
2018-08-20T09:42:40.863Z,15.23
2018-08-20T09:45:09.189Z,12.43
2018-08-20T09:47:38.830Z,11.67
2018-08-20T09:50:08.574Z,9.60
2018-08-20T09:52:36.753Z,12.33
2018-08-20T09:55:05.410Z,10.67
2018-08-20T09:57:34.257Z,12.33
2018-08-20T10:00:02.908Z,12.57
2018-08-20T10:02:31.794Z,9.77
2018-08-20T10:04:59.988Z,12.60
2018-08-20T10:07:28.584Z,12.80
2018-08-20T10:09:57.894Z,9.60
2018-08-20T10:12:26.753Z,16.20
2018-08-20T10:14:55.007Z,13.23
2018-08-20T10:17:23.807Z,10.77
2018-08-20T10:19:52.331Z,11.90
2018-08-20T10:22:20.653Z,11.40
2018-08-20T10:24:49.053Z,13.67
2018-08-20T10:27:18.366Z,12.33
2018-08-20T10:29:46.555Z,11.53
2018-08-20T10:32:14.779Z,10.90
2018-08-20T10:34:42.973Z,10.33
2018-08-20T10:37:11.397Z,11.13
2018-08-20T10:39:40.008Z,25.53
2018-08-20T10:42:08.181Z,13.57
2018-08-20T10:44:41.684Z,12.37
2018-08-20T10:47:09.864Z,10.27
2018-08-20T10:49:38.729Z,13.07
2018-08-20T10:52:07.342Z,10.90
2018-08-20T10:54:35.567Z,13.63
2018-08-20T10:57:03.744Z,16.43
2018-08-20T10:59:32.824Z,13.70
2018-08-20T11:02:01.689Z,15.00
2018-08-20T11:04:30.787Z,14.03
2018-08-20T11:06:59.316Z,12.53
2018-08-20T11:09:28.165Z,14.27
2018-08-20T11:11:56.709Z,14.37
2018-08-20T11:14:25.229Z,14.80
2018-08-20T11:16:53.824Z,11.37
2018-08-20T11:19:21.999Z,12.07
2018-08-20T11:21:50.191Z,13.17
2018-08-20T11:24:18.728Z,12.93
2018-08-20T11:26:47.206Z,14.07
2018-08-20T11:29:15.749Z,18.83
2018-08-20T11:31:44.601Z,13.70
2018-08-20T11:34:13.458Z,10.90
2018-08-20T11:36:42.108Z,14.97
2018-08-20T11:39:11.174Z,15.30
2018-08-20T11:41:39.664Z,10.90
2018-08-20T11:44:08.208Z,10.90
2018-08-20T11:46:37.257Z,10.43
2018-08-20T11:49:05.482Z,11.73
2018-08-20T11:51:34.666Z,9.50
2018-08-20T11:54:03.882Z,17.37
2018-08-20T11:56:32.054Z,11.53
2018-08-20T11:59:00.868Z,11.00
2018-08-20T12:01:29.598Z,9.60
2018-08-20T12:03:57.799Z,17.10
2018-08-20T12:06:26.920Z,10.90
2018-08-20T12:08:55.130Z,18.17
2018-08-20T12:11:23.662Z,12.37
2018-08-20T12:13:51.850Z,15.30
2018-08-20T12:16:20.406Z,9.57
2018-08-20T12:18:48.948Z,12.90
2018-08-20T12:21:17.468Z,11.30
2018-08-20T12:23:50.248Z,10.20
2018-08-20T12:26:18.787Z,12.50
2018-08-20T12:28:46.962Z,11.27
2018-08-20T12:31:15.177Z,11.80
2018-08-20T12:33:44.451Z,12.00
2018-08-20T12:36:12.985Z,12.13
2018-08-20T12:38:41.177Z,9.50
2018-08-20T12:41:10.361Z,13.73
2018-08-20T12:43:38.878Z,17.30
2018-08-20T12:46:07.438Z,10.87
2018-08-20T12:48:36.501Z,13.33
2018-08-20T12:51:05.022Z,12.00
2018-08-20T12:53:33.900Z,9.83
2018-08-20T12:56:02.724Z,10.00
2018-08-20T13:01:33.545Z,13.60
2018-08-20T13:04:02.714Z,15.57
2018-08-20T13:06:31.890Z,16.83
2018-08-20T13:09:01.472Z,14.53
2018-08-20T13:11:30.856Z,12.23
2018-08-20T13:13:59.045Z,11.30
2018-08-20T13:16:27.220Z,10.70
2018-08-20T13:18:55.784Z,15.33
2018-08-20T13:21:24.347Z,10.57
2018-08-20T13:23:52.529Z,12.97
2018-08-20T13:26:22.226Z,16.03
2018-08-20T13:28:51.073Z,8.63
2018-08-20T13:31:21.222Z,10.90
2018-08-20T13:33:50.106Z,10.17
2018-08-20T13:36:18.301Z,7.00
2018-08-20T13:38:46.854Z,9.70
2018-08-20T13:41:15.070Z,12.37
2018-08-20T13:43:53.088Z,14.97
2018-08-20T13:46:21.765Z,8.97
2018-08-20T13:48:50.560Z,17.77
2018-08-20T13:51:20.047Z,7.60
2018-08-20T13:53:48.994Z,9.80
2018-08-20T13:56:17.564Z,9.57
2018-08-20T13:58:46.096Z,12.67
2018-08-20T14:01:14.961Z,8.70
2018-08-20T14:03:43.731Z,8.87
2018-08-20T14:06:12.758Z,7.87
2018-08-20T14:08:40.974Z,9.53
2018-08-20T14:11:09.492Z,12.23
2018-08-20T14:13:38.008Z,8.73
2018-08-20T14:16:06.186Z,7.83
2018-08-20T14:18:34.369Z,7.20
2018-08-20T14:21:06.215Z,9.20
2018-08-20T14:23:34.525Z,5.43
2018-08-20T14:26:03.427Z,6.77
2018-08-20T14:28:32.018Z,12.73
2018-08-20T14:31:00.290Z,6.77
2018-08-20T14:33:29.133Z,6.70
2018-08-20T14:37:21.822Z,7.27
2018-08-20T14:39:53.273Z,8.30
2018-08-20T14:42:21.456Z,6.40
2018-08-20T14:44:50.169Z,8.97
2018-08-20T14:47:18.721Z,5.90
2018-08-20T14:49:46.898Z,6.33
2018-08-20T14:52:16.146Z,11.13
2018-08-20T14:54:48.469Z,5.50
2018-08-20T14:57:16.682Z,5.50
2018-08-20T14:59:45.638Z,5.93
2018-08-20T15:02:15.533Z,7.73
2018-08-20T15:04:44.711Z,10.47
2018-08-20T15:07:13.769Z,6.07
2018-08-20T15:09:42.682Z,7.90
2018-08-20T15:12:12.117Z,6.20
2018-08-20T15:14:48.454Z,5.27
2018-08-20T15:17:17.237Z,6.60
2018-08-20T15:19:46.011Z,6.60
2018-08-20T15:22:15.906Z,6.00
2018-08-20T15:27:38.289Z,13.37
2018-08-20T15:33:10.476Z,6.60
2018-08-20T15:35:47.688Z,11.60
2018-08-20T15:38:16.869Z,8.73
2018-08-20T15:40:45.072Z,10.17
2018-08-20T15:43:15.697Z,8.17
2018-08-20T15:45:44.225Z,9.00
2018-08-20T15:48:12.407Z,9.63
2018-08-20T15:50:40.674Z,8.37
2018-08-20T15:53:09.136Z,8.00
2018-08-20T15:55:37.498Z,6.87
2018-08-20T15:58:05.839Z,7.17
2018-08-20T16:00:34.039Z,11.90
2018-08-20T16:03:02.553Z,10.83
2018-08-20T16:05:31.433Z,10.63
2018-08-20T16:08:02.461Z,8.97
2018-08-20T16:10:31.674Z,11.97
2018-08-20T16:13:00.250Z,12.80
2018-08-20T16:15:28.650Z,8.13
2018-08-20T16:17:57.644Z,8.77
2018-08-20T16:20:25.887Z,8.40
2018-08-20T16:22:54.121Z,12.00
2018-08-20T16:25:22.339Z,11.17
2018-08-20T16:27:50.601Z,11.53
2018-08-20T16:30:19.192Z,6.83
2018-08-20T16:32:47.428Z,5.30
2018-08-20T16:35:16.322Z,11.80
2018-08-20T16:37:44.650Z,7.37
2018-08-20T16:40:13.498Z,7.80
2018-08-20T16:42:41.706Z,7.47
2018-08-20T16:45:10.758Z,7.77
2018-08-20T16:47:39.208Z,8.63
2018-08-20T16:50:09.129Z,8.33
2018-08-20T16:52:37.659Z,10.07
2018-08-20T16:55:06.376Z,10.67
2018-08-20T16:57:34.574Z,7.90
2018-08-20T17:00:02.871Z,6.63
2018-08-20T17:02:31.409Z,6.50
2018-08-20T17:04:59.934Z,10.40
2018-08-20T17:07:28.129Z,8.80
2018-08-20T17:09:56.642Z,7.53
2018-08-20T17:12:25.238Z,9.57
2018-08-20T17:14:54.453Z,8.73
2018-08-20T17:17:23.090Z,8.90
2018-08-20T17:19:52.709Z,7.23
2018-08-20T17:22:21.214Z,8.20
2018-08-20T17:24:53.966Z,6.07
2018-08-20T17:27:23.198Z,6.83
2018-08-20T17:29:53.803Z,8.30
2018-08-20T17:32:22.104Z,5.80
2018-08-20T17:34:51.023Z,7.23
2018-08-20T17:37:19.553Z,8.43
2018-08-20T17:40:05.830Z,10.00
2018-08-20T17:45:39.350Z,6.40
2018-08-20T17:48:32.685Z,4.57
2018-08-20T17:51:01.387Z,8.00
2018-08-20T17:53:41.758Z,8.73
2018-08-20T17:56:15.825Z,9.90
2018-08-20T17:58:44.256Z,4.90
2018-08-20T18:06:13.523Z,10.47
2018-08-20T18:08:43.545Z,8.00
2018-08-20T18:11:11.981Z,6.27
2018-08-20T18:13:46.633Z,4.33
2018-08-20T18:16:19.707Z,6.10
2018-08-20T18:18:51.266Z,7.93
2018-08-20T18:21:20.219Z,6.50
2018-08-20T18:23:50.066Z,7.43
2018-08-20T18:26:18.740Z,3.30
2018-08-20T18:28:52.769Z,5.90
2018-08-20T18:31:22.919Z,4.10
2018-08-20T18:33:51.893Z,8.23
2018-08-20T18:36:23.342Z,6.80
2018-08-20T18:38:57.945Z,4.08
2018-08-20T18:41:36.790Z,6.13
2018-08-20T18:44:05.591Z,5.13
2018-08-20T18:46:34.162Z,11.87
2018-08-20T18:49:02.762Z,4.70
2018-08-20T18:51:31.835Z,4.47
2018-08-20T18:54:00.382Z,3.90
2018-08-20T18:56:28.743Z,3.90
2018-08-20T18:58:57.271Z,4.27
2018-08-20T19:01:26.377Z,5.00
2018-08-20T19:03:55.311Z,5.03
2018-08-20T19:06:25.632Z,3.63
2018-08-20T19:08:59.946Z,8.80
2018-08-20T19:11:29.903Z,3.47
2018-08-20T19:14:05.954Z,4.90
2018-08-20T19:16:39.070Z,5.57
2018-08-20T19:19:08.422Z,7.27
2018-08-20T19:21:38.649Z,4.37
2018-08-20T19:24:08.721Z,4.17
2018-08-20T19:26:37.459Z,5.93
2018-08-20T19:29:36.898Z,4.30
2018-08-20T19:32:05.794Z,4.80
2018-08-20T19:34:34.584Z,4.50
2018-08-20T19:37:03.218Z,2.77
2018-08-20T19:39:32.123Z,6.57
2018-08-20T19:42:01.254Z,6.60
2018-08-20T19:44:29.985Z,5.10
2018-08-20T19:46:58.199Z,3.73
2018-08-20T19:49:26.716Z,5.97
2018-08-20T19:51:54.885Z,5.17
2018-08-20T19:54:23.422Z,4.67
2018-08-20T19:56:51.620Z,12.17
2018-08-20T19:59:26.545Z,5.30
2018-08-20T20:01:55.257Z,9.20
2018-08-20T20:04:23.835Z,7.53
2018-08-20T20:07:00.658Z,5.30
2018-08-20T20:09:28.855Z,5.13
2018-08-20T20:11:58.002Z,6.27
2018-08-20T20:14:33.436Z,5.80
2018-08-20T20:17:01.966Z,3.67
2018-08-20T20:19:30.525Z,4.07
2018-08-20T20:21:59.155Z,4.87
2018-08-20T20:24:27.692Z,8.03
2018-08-20T20:26:57.129Z,6.15
2018-08-20T20:29:25.324Z,7.00
2018-08-20T20:31:54.554Z,4.27
2018-08-20T20:34:23.061Z,3.73
2018-08-20T20:36:51.527Z,11.57
2018-08-20T20:39:21.061Z,7.28
2018-08-20T20:41:50.501Z,3.60
2018-08-20T20:44:19.354Z,4.00
2018-08-20T20:46:49.073Z,4.97
2018-08-20T20:49:17.264Z,2.73
2018-08-20T20:51:46.066Z,8.50
2018-08-20T20:57:08.314Z,4.90
2018-08-20T20:59:37.639Z,6.63
2018-08-20T21:02:07.050Z,5.58
2018-08-20T21:04:36.305Z,2.83
2018-08-20T21:07:05.190Z,6.33
2018-08-20T21:09:38.793Z,6.97
2018-08-20T21:12:07.015Z,4.10
2018-08-20T21:14:35.530Z,3.80
2018-08-20T21:17:09.207Z,4.73
2018-08-20T21:19:38.299Z,3.33
2018-08-20T21:22:09.197Z,3.67
2018-08-20T21:24:38.865Z,4.17
2018-08-20T21:27:16.781Z,2.87
2018-08-20T21:29:45.295Z,5.83
2018-08-20T21:32:13.710Z,6.05
2018-08-20T21:34:42.749Z,5.53
2018-08-20T21:37:11.825Z,4.33
2018-08-20T21:39:41.313Z,4.40
2018-08-20T21:42:10.689Z,4.58
2018-08-20T21:44:39.286Z,5.33
2018-08-20T21:47:29.572Z,3.30
2018-08-20T21:49:58.417Z,4.27
2018-08-20T21:52:27.249Z,4.07
2018-08-20T21:54:56.028Z,10.58
2018-08-20T21:57:25.382Z,4.50
2018-08-20T22:00:04.915Z,5.80
2018-08-20T22:02:33.499Z,13.00
2018-08-20T22:05:02.891Z,3.70
2018-08-20T22:07:31.437Z,6.15
2018-08-20T22:09:59.992Z,5.00
2018-08-20T22:12:28.656Z,3.53
2018-08-20T22:14:57.170Z,5.70
2018-08-20T22:17:30.751Z,7.77
2018-08-20T22:20:04.125Z,3.70
2018-08-20T22:22:33.295Z,7.65
2018-08-20T22:25:02.442Z,6.53
2018-08-20T22:27:38.341Z,12.20
2018-08-20T22:30:07.078Z,4.97
2018-08-20T22:32:36.231Z,6.35
2018-08-20T22:35:10.925Z,5.67
2018-08-20T22:37:40.350Z,7.78
2018-08-20T22:40:08.999Z,7.80
2018-08-20T22:42:45.765Z,7.40
2018-08-20T22:45:16.126Z,4.47
2018-08-20T22:47:46.754Z,3.55
2018-08-20T22:50:15.229Z,3.20
2018-08-20T22:54:09.565Z,6.60
2018-08-20T22:56:38.402Z,3.35
2018-08-20T22:59:09.048Z,5.57
2018-08-20T23:01:37.529Z,6.22
2018-08-20T23:04:06.317Z,3.50
2018-08-20T23:06:34.528Z,6.27
2018-08-20T23:09:20.007Z,9.08
2018-08-20T23:11:48.461Z,3.92
2018-08-20T23:14:17.545Z,7.15
2018-08-20T23:16:48.828Z,5.10
2018-08-20T23:19:17.671Z,9.10
2018-08-20T23:21:46.676Z,5.17
2018-08-20T23:24:15.881Z,9.95
2018-08-20T23:26:44.402Z,3.98
2018-08-20T23:29:13.416Z,7.85
2018-08-20T23:31:41.980Z,7.20
2018-08-20T23:34:15.117Z,5.05
2018-08-20T23:36:44.071Z,3.98
2018-08-20T23:39:15.164Z,5.85
2018-08-20T23:41:43.353Z,7.20
2018-08-20T23:44:14.900Z,7.30
2018-08-20T23:46:45.521Z,13.48
2018-08-20T23:49:14.648Z,5.20
2018-08-20T23:51:43.405Z,8.63
2018-08-20T23:54:12.234Z,5.80
2018-08-20T23:56:40.744Z,6.33
2018-08-20T23:59:09.688Z,6.40
